Accueil
METAR-TAF:

METAR-TAF

Aéroports :

Blytheville Municipal Airport

Blytheville, Arkansas, États-Unis

latitude: 35-56-20N, longitude: 089-49-57W, altitude: 78 m

Observation

Le bulletin a été fait il y a 15 minutes, à 17:09 UTC
Vent 12 kt de sud
Température 14°C
Humidité 72%
Pression 1016 hPa
Visibilité: 16.1 km
Nuages fragmentés à une hauteur de 2200 ft

METAR: KHKA 171709Z AUTO 17012KT 10SM BKN022 14/09 A2999 RMK AO2 T01440089 $

Heure: 11:24 (17:24 UTC)


TAF: absent

Observations et prévisions météorologiques de plus de 4000 aéroports (messages METAR et TAF).

Les stations disponibles sont représentées par des disques jaunes et rouges sur la carte.

Passer la souris dessus pour voir le nom de la station.

Cliquer dessus pour voir les observations et prévisions météorologiques.

Pour changer de carte: cliquez sur les boutons verts avec une croix noire pour zoomer, sur le bouton vert avec un tiret pour effectuer un zoom arrière, ou sur les flèches vertes pour les cartes adjacentes.


METAR-TAF: